sensor_id;sensor_type;location;lat;lon;timestamp;pressure;altitude;pressure_sealevel;temperature;humidity
21664;BME280;10993;52.510;13.456;2023-01-30T00:01:51;56670.13;;;-146.93;65.57
21664;BME280;10993;52.510;13.456;2023-01-30T00:06:51;56641.78;;;-146.93;65.82
21664;BME280;10993;52.510;13.456;2023-01-30T00:11:52;56641.78;;;-146.93;65.66
21664;BME280;10993;52.510;13.456;2023-01-30T00:16:53;56666.06;;;-146.93;65.07
21664;BME280;10993;52.510;13.456;2023-01-30T00:21:54;56595.22;;;-146.93;65.03
21664;BME280;10993;52.510;13.456;2023-01-30T00:26:54;56633.69;;;-146.93;64.86
21664;BME280;10993;52.510;13.456;2023-01-30T00:31:55;56613.44;;;-146.93;64.88
21664;BME280;10993;52.510;13.456;2023-01-30T00:36:56;56621.53;;;-146.93;64.90
21664;BME280;10993;52.510;13.456;2023-01-30T00:41:56;56572.94;;;-146.93;64.76
21664;BME280;10993;52.510;13.456;2023-01-30T00:47:16;56645.81;;;-146.93;64.98
21664;BME280;10993;52.510;13.456;2023-01-30T00:52:17;56649.88;;;-146.93;65.29
21664;BME280;10993;52.510;13.456;2023-01-30T00:57:17;56629.63;;;-146.93;65.23
21664;BME280;10993;52.510;13.456;2023-01-30T01:02:19;56504.09;;;-146.93;65.03
21664;BME280;10993;52.510;13.456;2023-01-30T01:07:19;56633.69;;;-146.93;65.09
21664;BME280;10993;52.510;13.456;2023-01-30T01:12:19;56643.81;;;-146.93;65.03
21664;BME280;10993;52.510;13.456;2023-01-30T01:17:21;56664.06;;;-146.93;65.05
21664;BME280;10993;52.510;13.456;2023-01-30T01:22:21;56641.78;;;-146.93;65.50
21664;BME280;10993;52.510;13.456;2023-01-30T01:27:22;56649.88;;;-146.93;66.13
21664;BME280;10993;52.510;13.456;2023-01-30T01:32:23;56633.69;;;-146.93;65.66
21664;BME280;10993;52.510;13.456;2023-01-30T01:37:24;56631.66;;;-146.93;65.58
21664;BME280;10993;52.510;13.456;2023-01-30T01:42:25;56653.94;;;-146.93;66.33
21664;BME280;10993;52.510;13.456;2023-01-30T01:47:30;56611.41;;;-146.93;65.68
21664;BME280;10993;52.510;13.456;2023-01-30T01:52:32;56670.13;;;-146.93;65.78
21664;BME280;10993;52.510;13.456;2023-01-30T01:57:36;56633.69;;;-146.93;65.55
21664;BME280;10993;52.510;13.456;2023-01-30T02:02:41;56662.03;;;-146.93;66.48
21664;BME280;10993;52.510;13.456;2023-01-30T02:07:45;56657.97;;;-146.93;67.70
21664;BME280;10993;52.510;13.456;2023-01-30T02:12:47;56637.72;;;-146.93;68.95
21664;BME280;10993;52.510;13.456;2023-01-30T02:17:49;56653.94;;;-146.93;71.49
21664;BME280;10993;52.510;13.456;2023-01-30T02:23:31;56662.03;;;-146.93;72.65
21664;BME280;10993;52.510;13.456;2023-01-30T02:28:56;56676.19;;;-146.93;73.35
21664;BME280;10993;52.510;13.456;2023-01-30T02:34:13;56641.78;;;-146.93;73.59
21664;BME280;10993;52.510;13.456;2023-01-30T02:39:25;56605.34;;;-146.93;73.29
21664;BME280;10993;52.510;13.456;2023-01-30T02:44:38;56931.34;;;-146.93;73.57
21664;BME280;10993;52.510;13.456;2023-01-30T02:49:45;56684.31;;;-146.93;74.59
21664;BME280;10993;52.510;13.456;2023-01-30T02:54:47;56670.13;;;-146.93;77.33
21664;BME280;10993;52.510;13.456;2023-01-30T02:59:50;56664.06;;;-146.93;79.45
21664;BME280;10993;52.510;13.456;2023-01-30T03:05:22;56684.31;;;-146.93;80.37
21664;BME280;10993;52.510;13.456;2023-01-30T03:10:33;56678.22;;;-146.93;80.59
21664;BME280;10993;52.510;13.456;2023-01-30T03:15:39;56625.59;;;-146.93;80.59
21664;BME280;10993;52.510;13.456;2023-01-30T03:20:42;56631.66;;;-146.93;80.34
21664;BME280;10993;52.510;13.456;2023-01-30T03:25:43;56657.97;;;-146.93;80.65
21664;BME280;10993;52.510;13.456;2023-01-30T03:30:45;56629.63;;;-146.93;80.28
21664;BME280;10993;52.510;13.456;2023-01-30T03:35:46;56666.06;;;-146.93;80.71
21664;BME280;10993;52.510;13.456;2023-01-30T03:40:47;56680.25;;;-146.93;80.61
21664;BME280;10993;52.510;13.456;2023-01-30T03:45:47;56670.13;;;-146.93;80.12
21664;BME280;10993;52.510;13.456;2023-01-30T03:50:49;56568.88;;;-146.93;80.56
21664;BME280;10993;52.510;13.456;2023-01-30T03:55:49;56657.97;;;-146.93;81.32
21664;BME280;10993;52.510;13.456;2023-01-30T04:00:49;56674.19;;;-146.93;81.46
21664;BME280;10993;52.510;13.456;2023-01-30T04:05:51;56641.78;;;-146.93;81.79
21664;BME280;10993;52.510;13.456;2023-01-30T04:10:51;56643.81;;;-146.93;82.25
21664;BME280;10993;52.510;13.456;2023-01-30T04:15:52;56627.59;;;-146.93;81.83
21664;BME280;10993;52.510;13.456;2023-01-30T04:20:53;56645.81;;;-146.93;81.55
21664;BME280;10993;52.510;13.456;2023-01-30T04:25:54;56666.06;;;-146.93;81.01
21664;BME280;10993;52.510;13.456;2023-01-30T04:30:54;56653.94;;;-146.93;80.87
21664;BME280;10993;52.510;13.456;2023-01-30T04:35:57;56651.91;;;-146.93;80.95
21664;BME280;10993;52.510;13.456;2023-01-30T04:40:58;56657.97;;;-146.93;80.61
21664;BME280;10993;52.510;13.456;2023-01-30T04:45:59;56662.03;;;-146.93;79.73
21664;BME280;10993;52.510;13.456;2023-01-30T04:51:00;56633.69;;;-146.93;80.10
21664;BME280;10993;52.510;13.456;2023-01-30T04:56:01;56542.56;;;-146.93;80.72
21664;BME280;10993;52.510;13.456;2023-01-30T05:01:15;56653.94;;;-146.93;81.00
21664;BME280;10993;52.510;13.456;2023-01-30T05:06:17;56613.44;;;-146.93;81.99
21664;BME280;10993;52.510;13.456;2023-01-30T05:11:18;56676.19;;;-146.93;82.62
21664;BME280;10993;52.510;13.456;2023-01-30T05:16:19;56645.81;;;-146.93;83.63
21664;BME280;10993;52.510;13.456;2023-01-30T05:21:22;56657.97;;;-146.93;84.44
21664;BME280;10993;52.510;13.456;2023-01-30T05:26:25;56623.56;;;-146.93;84.97
21664;BME280;10993;52.510;13.456;2023-01-30T05:31:25;56633.69;;;-146.93;85.24
21664;BME280;10993;52.510;13.456;2023-01-30T05:36:27;56627.59;;;-146.93;86.07
21664;BME280;10993;52.510;13.456;2023-01-30T05:41:27;57648.22;;;-146.93;86.25
21664;BME280;10993;52.510;13.456;2023-01-30T05:46:27;56591.16;;;-146.93;85.80
21664;BME280;10993;52.510;13.456;2023-01-30T05:51:29;56641.78;;;-146.93;85.87
21664;BME280;10993;52.510;13.456;2023-01-30T05:56:30;56629.63;;;-146.93;86.01
21664;BME280;10993;52.510;13.456;2023-01-30T06:01:33;56613.44;;;-146.93;86.04
21664;BME280;10993;52.510;13.456;2023-01-30T06:06:35;56649.88;;;-146.93;86.40
21664;BME280;10993;52.510;13.456;2023-01-30T06:11:35;56670.13;;;-146.93;86.81
21664;BME280;10993;52.510;13.456;2023-01-30T06:16:35;56643.81;;;-146.93;86.53
21664;BME280;10993;52.510;13.456;2023-01-30T06:21:37;56637.72;;;-146.93;86.39
21664;BME280;10993;52.510;13.456;2023-01-30T06:26:37;56629.63;;;-146.93;86.45
21664;BME280;10993;52.510;13.456;2023-01-30T06:31:38;56649.88;;;-146.93;87.25
21664;BME280;10993;52.510;13.456;2023-01-30T06:36:39;56625.59;;;-146.93;86.69
21664;BME280;10993;52.510;13.456;2023-01-30T06:41:40;56637.72;;;-146.93;87.60
21664;BME280;10993;52.510;13.456;2023-01-30T06:46:40;56625.59;;;-146.93;87.13
21664;BME280;10993;52.510;13.456;2023-01-30T06:51:42;56637.72;;;-146.93;87.43
21664;BME280;10993;52.510;13.456;2023-01-30T06:56:42;56617.47;;;-146.93;87.37
21664;BME280;10993;52.510;13.456;2023-01-30T07:01:42;56605.34;;;-146.93;87.18
21664;BME280;10993;52.510;13.456;2023-01-30T07:06:44;56621.53;;;-146.93;87.15
21664;BME280;10993;52.510;13.456;2023-01-30T07:11:46;56657.97;;;-146.93;87.07
21664;BME280;10993;52.510;13.456;2023-01-30T07:16:47;56607.34;;;-146.93;87.53
21664;BME280;10993;52.510;13.456;2023-01-30T07:21:49;56613.44;;;-146.93;87.83
21664;BME280;10993;52.510;13.456;2023-01-30T07:26:49;56657.97;;;-146.93;88.33
21664;BME280;10993;52.510;13.456;2023-01-30T07:31:50;56595.22;;;-146.93;88.18
21664;BME280;10993;52.510;13.456;2023-01-30T07:36:52;56625.59;;;-146.93;88.19
21664;BME280;10993;52.510;13.456;2023-01-30T07:41:52;56583.06;;;-146.93;88.17
21664;BME280;10993;52.510;13.456;2023-01-30T07:46:52;56619.50;;;-146.93;88.04
21664;BME280;10993;52.510;13.456;2023-01-30T07:51:54;56611.41;;;-146.93;88.34
21664;BME280;10993;52.510;13.456;2023-01-30T07:56:54;56603.31;;;-146.93;88.30
21664;BME280;10993;52.510;13.456;2023-01-30T08:01:55;56631.66;;;-146.93;88.50
21664;BME280;10993;52.510;13.456;2023-01-30T08:06:59;56585.09;;;-146.93;88.11
21664;BME280;10993;52.510;13.456;2023-01-30T08:11:59;56613.44;;;-146.93;88.33
21664;BME280;10993;52.510;13.456;2023-01-30T08:16:59;56609.38;;;-146.93;88.41
21664;BME280;10993;52.510;13.456;2023-01-30T08:22:01;56649.88;;;-146.93;88.57
21664;BME280;10993;52.510;13.456;2023-01-30T08:27:01;56599.25;;;-146.93;88.94
21664;BME280;10993;52.510;13.456;2023-01-30T08:32:02;56611.41;;;-146.93;88.67
21664;BME280;10993;52.510;13.456;2023-01-30T08:37:04;56601.28;;;-146.93;87.36
21664;BME280;10993;52.510;13.456;2023-01-30T08:42:04;56623.56;;;-146.93;86.85
21664;BME280;10993;52.510;13.456;2023-01-30T08:47:04;56589.13;;;-146.93;87.18
21664;BME280;10993;52.510;13.456;2023-01-30T08:52:06;56605.34;;;-146.93;87.46
21664;BME280;10993;52.510;13.456;2023-01-30T08:57:08;56633.69;;;-146.93;87.57
21664;BME280;10993;52.510;13.456;2023-01-30T09:02:09;56609.38;;;-146.93;87.28
21664;BME280;10993;52.510;13.456;2023-01-30T09:07:10;56647.84;;;-146.93;86.50
21664;BME280;10993;52.510;13.456;2023-01-30T09:12:11;56601.28;;;-146.93;86.05
21664;BME280;10993;52.510;13.456;2023-01-30T09:17:11;56603.31;;;-146.93;85.02
21664;BME280;10993;52.510;13.456;2023-01-30T09:22:13;56613.44;;;-146.93;84.80
21664;BME280;10993;52.510;13.456;2023-01-30T09:27:13;56605.34;;;-146.93;85.18
21664;BME280;10993;52.510;13.456;2023-01-30T09:32:13;56627.59;;;-146.93;84.79
21664;BME280;10993;52.510;13.456;2023-01-30T09:37:15;56572.94;;;-146.93;84.48
21664;BME280;10993;52.510;13.456;2023-01-30T09:42:52;56615.47;;;-146.93;84.09
21664;BME280;10993;52.510;13.456;2023-01-30T09:47:59;56617.47;;;-146.93;83.96
21664;BME280;10993;52.510;13.456;2023-01-30T09:53:07;56581.03;;;-146.93;83.35
21664;BME280;10993;52.510;13.456;2023-01-30T09:58:15;56623.56;;;-146.93;83.67
21664;BME280;10993;52.510;13.456;2023-01-30T10:03:18;56633.69;;;-146.93;82.30
21664;BME280;10993;52.510;13.456;2023-01-30T10:08:42;56809.84;;;-146.93;81.38
21664;BME280;10993;52.510;13.456;2023-01-30T10:13:55;56635.72;;;-146.93;81.21
21664;BME280;10993;52.510;13.456;2023-01-30T10:19:11;56613.44;;;-146.93;79.33
21664;BME280;10993;52.510;13.456;2023-01-30T10:24:30;56625.59;;;-146.93;76.64
21664;BME280;10993;52.510;13.456;2023-01-30T10:29:35;56641.78;;;-146.93;75.21
21664;BME280;10993;52.510;13.456;2023-01-30T10:34:39;56649.88;;;-146.93;73.50
21664;BME280;10993;52.510;13.456;2023-01-30T10:39:48;56657.97;;;-146.93;71.15
21664;BME280;10993;52.510;13.456;2023-01-30T10:44:50;56751.13;;;-146.93;68.75
21664;BME280;10993;52.510;13.456;2023-01-30T10:49:54;56643.81;;;-146.93;66.79
21664;BME280;10993;52.510;13.456;2023-01-30T10:55:03;56662.03;;;-146.93;67.31
21664;BME280;10993;52.510;13.456;2023-01-30T11:00:14;56633.69;;;-146.93;66.78
21664;BME280;10993;52.510;13.456;2023-01-30T11:05:19;56629.63;;;-146.93;67.46
21664;BME280;10993;52.510;13.456;2023-01-30T11:10:24;56651.91;;;-146.93;66.28
21664;BME280;10993;52.510;13.456;2023-01-30T11:15:37;56579.00;;;-146.93;64.53
21664;BME280;10993;52.510;13.456;2023-01-30T11:20:39;56544.59;;;-146.93;65.11
21664;BME280;10993;52.510;13.456;2023-01-30T11:25:47;56635.72;;;-146.93;65.37
21664;BME280;10993;52.510;13.456;2023-01-30T11:30:52;56643.81;;;-146.93;61.73
21664;BME280;10993;52.510;13.456;2023-01-30T11:35:55;56451.47;;;-146.93;61.80
21664;BME280;10993;52.510;13.456;2023-01-30T11:41:18;56641.78;;;-146.93;62.19
21664;BME280;10993;52.510;13.456;2023-01-30T11:46:19;56647.84;;;-146.93;63.69
21664;BME280;10993;52.510;13.456;2023-01-30T11:51:21;56615.47;;;-146.93;64.41
21664;BME280;10993;52.510;13.456;2023-01-30T11:56:31;56621.53;;;-146.93;66.20
21664;BME280;10993;52.510;13.456;2023-01-30T12:01:34;56603.31;;;-146.93;69.95
21664;BME280;10993;52.510;13.456;2023-01-30T12:06:36;56617.47;;;-146.93;75.76
21664;BME280;10993;52.510;13.456;2023-01-30T12:11:41;56599.25;;;-146.93;79.27
21664;BME280;10993;52.510;13.456;2023-01-30T12:16:56;56643.81;;;-146.93;82.40
21664;BME280;10993;52.510;13.456;2023-01-30T12:22:01;56619.50;;;-146.93;82.66
21664;BME280;10993;52.510;13.456;2023-01-30T12:27:12;56629.63;;;-146.93;80.08
21664;BME280;10993;52.510;13.456;2023-01-30T12:32:18;56678.22;;;-146.93;74.82
21664;BME280;10993;52.510;13.456;2023-01-30T12:37:32;56629.63;;;-146.93;72.27
21664;BME280;10993;52.510;13.456;2023-01-30T12:42:57;56633.69;;;-146.93;72.80
21664;BME280;10993;52.510;13.456;2023-01-30T12:48:29;56641.78;;;-146.93;72.04
21664;BME280;10993;52.510;13.456;2023-01-30T12:53:39;56607.34;;;-146.93;70.59
21664;BME280;10993;52.510;13.456;2023-01-30T12:58:49;56595.22;;;-146.93;67.55
21664;BME280;10993;52.510;13.456;2023-01-30T13:03:56;56639.75;;;-146.93;66.85
21664;BME280;10993;52.510;13.456;2023-01-30T13:09:12;56611.41;;;-146.93;65.16
21664;BME280;10993;52.510;13.456;2023-01-30T13:14:21;56637.72;;;-146.93;65.10
21664;BME280;10993;52.510;13.456;2023-01-30T13:19:27;56649.88;;;-146.93;65.42
21664;BME280;10993;52.510;13.456;2023-01-30T13:24:39;56611.41;;;-146.93;65.34
21664;BME280;10993;52.510;13.456;2023-01-30T13:29:45;56637.72;;;-146.93;63.15
21664;BME280;10993;52.510;13.456;2023-01-30T13:34:46;56605.34;;;-146.93;61.23
21664;BME280;10993;52.510;13.456;2023-01-30T13:39:51;56645.81;;;-146.93;60.35
21664;BME280;10993;52.510;13.456;2023-01-30T13:44:55;56629.63;;;-146.93;61.28
21664;BME280;10993;52.510;13.456;2023-01-30T13:50:11;56631.66;;;-146.93;67.79
21664;BME280;10993;52.510;13.456;2023-01-30T13:55:25;56500.06;;;-146.93;73.61
21664;BME280;10993;52.510;13.456;2023-01-30T14:00:30;57164.19;;;-146.93;77.12
21664;BME280;10993;52.510;13.456;2023-01-30T14:06:01;56609.38;;;-146.93;79.70
21664;BME280;10993;52.510;13.456;2023-01-30T14:11:03;56649.88;;;-146.93;82.64
21664;BME280;10993;52.510;13.456;2023-01-30T14:16:05;56611.41;;;-146.93;83.95
21664;BME280;10993;52.510;13.456;2023-01-30T14:21:13;56627.59;;;-146.93;84.16
21664;BME280;10993;52.510;13.456;2023-01-30T14:26:15;56637.72;;;-146.93;84.02
21664;BME280;10993;52.510;13.456;2023-01-30T14:31:51;56613.44;;;-146.93;84.47
21664;BME280;10993;52.510;13.456;2023-01-30T14:36:52;56637.72;;;-146.93;85.07
21664;BME280;10993;52.510;13.456;2023-01-30T14:42:11;56607.34;;;-146.93;84.59
21664;BME280;10993;52.510;13.456;2023-01-30T14:47:18;56530.41;;;-146.93;83.67
21664;BME280;10993;52.510;13.456;2023-01-30T14:52:30;56637.72;;;-146.93;82.72
21664;BME280;10993;52.510;13.456;2023-01-30T14:57:33;56631.66;;;-146.93;81.56
21664;BME280;10993;52.510;13.456;2023-01-30T15:02:39;56637.72;;;-146.93;81.92
21664;BME280;10993;52.510;13.456;2023-01-30T15:07:45;56631.66;;;-146.93;83.44
21664;BME280;10993;52.510;13.456;2023-01-30T15:12:58;56613.44;;;-146.93;84.01
21664;BME280;10993;52.510;13.456;2023-01-30T15:23:45;56609.38;;;-146.93;83.34
21664;BME280;10993;52.510;13.456;2023-01-30T15:29:16;56619.50;;;-146.93;83.35
21664;BME280;10993;52.510;13.456;2023-01-30T15:34:19;56635.72;;;-146.93;82.97
21664;BME280;10993;52.510;13.456;2023-01-30T15:39:21;56633.69;;;-146.93;82.51
21664;BME280;10993;52.510;13.456;2023-01-30T15:44:45;56627.59;;;-146.93;82.37
21664;BME280;10993;52.510;13.456;2023-01-30T15:49:54;56633.69;;;-146.93;82.13
21664;BME280;10993;52.510;13.456;2023-01-30T15:54:57;56629.63;;;-146.93;81.88
21664;BME280;10993;52.510;13.456;2023-01-30T15:59:59;56617.47;;;-146.93;81.35
21664;BME280;10993;52.510;13.456;2023-01-30T16:05:14;56629.63;;;-146.93;81.14
21664;BME280;10993;52.510;13.456;2023-01-30T16:10:17;56637.72;;;-146.93;80.30
21664;BME280;10993;52.510;13.456;2023-01-30T16:15:24;56670.13;;;-146.93;80.74
21664;BME280;10993;52.510;13.456;2023-01-30T16:20:27;56637.72;;;-146.93;80.63
21664;BME280;10993;52.510;13.456;2023-01-30T16:25:28;57344.44;;;-146.93;80.80
21664;BME280;10993;52.510;13.456;2023-01-30T16:30:33;56639.75;;;-146.93;82.65
21664;BME280;10993;52.510;13.456;2023-01-30T16:35:42;56615.47;;;-146.93;84.57
21664;BME280;10993;52.510;13.456;2023-01-30T16:40:44;56552.69;;;-146.93;85.01
21664;BME280;10993;52.510;13.456;2023-01-30T16:51:23;56595.22;;;-146.93;86.08
21664;BME280;10993;52.510;13.456;2023-01-30T16:56:23;56615.47;;;-146.93;86.24
21664;BME280;10993;52.510;13.456;2023-01-30T17:01:33;56653.94;;;-146.93;87.19
21664;BME280;10993;52.510;13.456;2023-01-30T17:06:39;56633.69;;;-146.93;86.11
21664;BME280;10993;52.510;13.456;2023-01-30T17:11:42;56625.59;;;-146.93;86.32
21664;BME280;10993;52.510;13.456;2023-01-30T17:16:42;56465.63;;;-146.93;86.16
21664;BME280;10993;52.510;13.456;2023-01-30T17:21:48;56629.63;;;-146.93;85.33
21664;BME280;10993;52.510;13.456;2023-01-30T17:26:50;56635.72;;;-146.93;85.08
21664;BME280;10993;52.510;13.456;2023-01-30T17:31:52;56641.78;;;-146.93;84.86
21664;BME280;10993;52.510;13.456;2023-01-30T17:36:54;56645.81;;;-146.93;85.27
21664;BME280;10993;52.510;13.456;2023-01-30T17:41:55;56643.81;;;-146.93;84.68
21664;BME280;10993;52.510;13.456;2023-01-30T17:46:55;56611.41;;;-146.93;84.27
21664;BME280;10993;52.510;13.456;2023-01-30T17:51:57;56678.22;;;-146.93;84.13
21664;BME280;10993;52.510;13.456;2023-01-30T17:57:00;56623.56;;;-146.93;83.69
21664;BME280;10993;52.510;13.456;2023-01-30T18:02:01;56647.84;;;-146.93;83.18
21664;BME280;10993;52.510;13.456;2023-01-30T18:07:03;56613.44;;;-146.93;82.77
21664;BME280;10993;52.510;13.456;2023-01-30T18:12:05;56615.47;;;-146.93;81.74
21664;BME280;10993;52.510;13.456;2023-01-30T18:17:05;56645.81;;;-146.93;81.11
21664;BME280;10993;52.510;13.456;2023-01-30T18:22:07;56637.72;;;-146.93;80.68
21664;BME280;10993;52.510;13.456;2023-01-30T18:27:07;56613.44;;;-146.93;79.17
21664;BME280;10993;52.510;13.456;2023-01-30T18:32:08;56653.94;;;-146.93;78.58
21664;BME280;10993;52.510;13.456;2023-01-30T18:37:10;56585.09;;;-146.93;76.84
21664;BME280;10993;52.510;13.456;2023-01-30T18:42:10;56605.34;;;-146.93;75.43
21664;BME280;10993;52.510;13.456;2023-01-30T18:47:10;57095.34;;;-146.93;75.30
21664;BME280;10993;52.510;13.456;2023-01-30T18:52:12;56629.63;;;-146.93;75.19
21664;BME280;10993;52.510;13.456;2023-01-30T18:57:12;56657.97;;;-146.93;74.70
21664;BME280;10993;52.510;13.456;2023-01-30T19:02:13;56645.81;;;-146.93;73.77
21664;BME280;10993;52.510;13.456;2023-01-30T19:07:14;56986.00;;;-146.93;73.73
21664;BME280;10993;52.510;13.456;2023-01-30T19:12:15;56625.59;;;-146.93;73.05
21664;BME280;10993;52.510;13.456;2023-01-30T19:17:33;56617.47;;;-146.93;71.52
21664;BME280;10993;52.510;13.456;2023-01-30T19:22:35;56540.53;;;-146.93;71.00
21664;BME280;10993;52.510;13.456;2023-01-30T19:27:36;56649.88;;;-146.93;70.31
21664;BME280;10993;52.510;13.456;2023-01-30T19:32:36;56605.34;;;-146.93;69.75
21664;BME280;10993;52.510;13.456;2023-01-30T19:37:38;56633.69;;;-146.93;69.45
21664;BME280;10993;52.510;13.456;2023-01-30T19:42:38;56641.78;;;-146.93;68.31
21664;BME280;10993;52.510;13.456;2023-01-30T19:47:39;56613.44;;;-146.93;67.74
21664;BME280;10993;52.510;13.456;2023-01-30T19:52:40;56641.78;;;-146.93;67.10
21664;BME280;10993;52.510;13.456;2023-01-30T19:57:41;56649.88;;;-146.93;67.29
21664;BME280;10993;52.510;13.456;2023-01-30T20:02:41;56637.72;;;-146.93;67.86
21664;BME280;10993;52.510;13.456;2023-01-30T20:07:43;56601.28;;;-146.93;68.18
21664;BME280;10993;52.510;13.456;2023-01-30T20:12:45;56633.69;;;-146.93;69.33
21664;BME280;10993;52.510;13.456;2023-01-30T20:17:45;56666.06;;;-146.93;69.70
21664;BME280;10993;52.510;13.456;2023-01-30T20:22:47;56627.59;;;-146.93;69.79
21664;BME280;10993;52.510;13.456;2023-01-30T20:27:48;56639.75;;;-146.93;70.55
21664;BME280;10993;52.510;13.456;2023-01-30T20:32:48;56605.34;;;-146.93;70.43
21664;BME280;10993;52.510;13.456;2023-01-30T20:37:53;56617.47;;;-146.93;69.85
21664;BME280;10993;52.510;13.456;2023-01-30T20:42:53;56613.44;;;-146.93;68.77
21664;BME280;10993;52.510;13.456;2023-01-30T20:47:54;56601.28;;;-146.93;67.85
21664;BME280;10993;52.510;13.456;2023-01-30T20:52:55;56625.59;;;-146.93;67.88
21664;BME280;10993;52.510;13.456;2023-01-30T20:57:56;56660.00;;;-146.93;66.71
21664;BME280;10993;52.510;13.456;2023-01-30T21:02:56;56609.38;;;-146.93;65.34
21664;BME280;10993;52.510;13.456;2023-01-30T21:07:58;56641.78;;;-146.93;64.82
21664;BME280;10993;52.510;13.456;2023-01-30T21:12:58;56615.47;;;-146.93;64.46
21664;BME280;10993;52.510;13.456;2023-01-30T21:17:58;56645.81;;;-146.93;63.91
21664;BME280;10993;52.510;13.456;2023-01-30T21:23:00;56617.47;;;-146.93;63.09
21664;BME280;10993;52.510;13.456;2023-01-30T21:28:00;56621.53;;;-146.93;62.42
21664;BME280;10993;52.510;13.456;2023-01-30T21:33:01;56625.59;;;-146.93;62.00
21664;BME280;10993;52.510;13.456;2023-01-30T21:38:02;56641.78;;;-146.93;62.71
21664;BME280;10993;52.510;13.456;2023-01-30T21:43:21;56621.53;;;-146.93;63.07
21664;BME280;10993;52.510;13.456;2023-01-30T21:48:21;56637.72;;;-146.93;63.63
21664;BME280;10993;52.510;13.456;2023-01-30T21:53:23;56641.78;;;-146.93;63.52
21664;BME280;10993;52.510;13.456;2023-01-30T21:58:24;56633.69;;;-146.93;64.89
21664;BME280;10993;52.510;13.456;2023-01-30T22:03:24;56641.78;;;-146.93;64.62
21664;BME280;10993;52.510;13.456;2023-01-30T22:08:26;56637.72;;;-146.93;64.77
21664;BME280;10993;52.510;13.456;2023-01-30T22:13:27;56613.44;;;-146.93;64.86
21664;BME280;10993;52.510;13.456;2023-01-30T22:18:27;56635.72;;;-146.93;65.85
21664;BME280;10993;52.510;13.456;2023-01-30T22:23:34;56293.53;;;-146.93;66.38
21664;BME280;10993;52.510;13.456;2023-01-30T22:28:35;56631.66;;;-146.93;66.39
21664;BME280;10993;52.510;13.456;2023-01-30T22:33:36;56670.13;;;-146.93;66.64
21664;BME280;10993;52.510;13.456;2023-01-30T22:38:40;56666.06;;;-146.93;66.25
21664;BME280;10993;52.510;13.456;2023-01-30T22:43:42;56627.59;;;-146.93;66.98
21664;BME280;10993;52.510;13.456;2023-01-30T22:48:44;56637.72;;;-146.93;67.51
21664;BME280;10993;52.510;13.456;2023-01-30T22:53:48;56653.94;;;-146.93;67.87
21664;BME280;10993;52.510;13.456;2023-01-30T22:58:49;56629.63;;;-146.93;68.20
21664;BME280;10993;52.510;13.456;2023-01-30T23:03:53;56649.88;;;-146.93;68.37
21664;BME280;10993;52.510;13.456;2023-01-30T23:08:55;56649.88;;;-146.93;68.17
21664;BME280;10993;52.510;13.456;2023-01-30T23:13:57;56649.88;;;-146.93;68.44
21664;BME280;10993;52.510;13.456;2023-01-30T23:18:59;56653.94;;;-146.93;68.35
21664;BME280;10993;52.510;13.456;2023-01-30T23:24:03;56649.88;;;-146.93;68.51
21664;BME280;10993;52.510;13.456;2023-01-30T23:29:05;56617.47;;;-146.93;68.68
21664;BME280;10993;52.510;13.456;2023-01-30T23:34:11;56577.00;;;-146.93;68.40
21664;BME280;10993;52.510;13.456;2023-01-30T23:39:13;56674.19;;;-146.93;68.01
21664;BME280;10993;52.510;13.456;2023-01-30T23:44:14;56653.94;;;-146.93;67.69
21664;BME280;10993;52.510;13.456;2023-01-30T23:49:14;56607.34;;;-146.93;68.24
21664;BME280;10993;52.510;13.456;2023-01-30T23:54:16;56631.66;;;-146.93;67.94
21664;BME280;10993;52.510;13.456;2023-01-30T23:59:16;56479.81;;;-146.93;67.85
